Time;durP1;ratioP1;P1;durP2;ratioP2;P2;SDS_P1;SDS_P2;PMS_P1;PMS_P2;Temp;Humidity;BMP_temperature;BMP_pressure;BME280_temperature;BME280_humidity;BME280_pressure;Samples;Min_cycle;Max_cycle;Signal;HPM_P1;HPM_P2
2023/03/21 00:01:44;;;;;;;6.22;5.62;;;;;;;5.57;97.19;99375.26;1713330;80;21173;-56
2023/03/21 00:04:10;;;;;;;6.73;5.97;;;;;;;5.55;97.37;99377.04;1745318;80;21635;-57
2023/03/21 00:06:37;;;;;;;7.35;6.08;;;;;;;5.57;97.54;99372.67;1737189;80;21148;-57
2023/03/21 00:09:03;;;;;;;7.70;6.72;;;;;;;5.54;97.36;99366.27;1723287;81;21572;-57
2023/03/21 00:11:30;;;;;;;8.55;7.28;;;;;;;5.51;97.92;99361.19;1735576;80;21067;-57
2023/03/21 00:13:57;;;;;;;8.55;6.47;;;;;;;5.50;97.02;99357.37;1739517;80;21627;-57
2023/03/21 00:16:25;;;;;;;9.70;6.78;;;;;;;5.47;97.05;99349.70;1729445;80;21084;-57
2023/03/21 00:18:52;;;;;;;9.95;8.73;;;;;;;5.45;97.52;99352.78;1729205;80;21634;-57
2023/03/21 00:21:21;;;;;;;10.82;8.05;;;;;;;5.44;97.63;99348.51;1718045;80;21181;-57
2023/03/21 00:23:47;;;;;;;7.83;6.78;;;;;;;5.45;97.68;99355.37;1728446;80;21531;-57
2023/03/21 00:26:16;;;;;;;8.45;7.65;;;;;;;5.47;97.67;99355.72;1732387;80;21092;-56
2023/03/21 00:28:43;;;;;;;10.38;7.83;;;;;;;5.50;97.59;99360.80;1740207;80;21131;-57
2023/03/21 00:31:10;;;;;;;8.48;7.58;;;;;;;5.52;98.17;99359.02;1727207;80;21085;-56
2023/03/21 00:33:41;;;;;;;9.20;8.10;;;;;;;5.51;98.00;99353.87;1726163;80;21223;-57
2023/03/21 00:36:07;;;;;;;9.05;7.80;;;;;;;5.51;97.89;99349.53;1734414;80;21173;-57
2023/03/21 00:38:35;;;;;;;10.32;8.58;;;;;;;5.50;98.89;99347.84;1725156;80;21036;-57
2023/03/21 00:41:05;;;;;;;10.93;8.68;;;;;;;5.50;98.04;99358.20;1727171;80;21018;-57
2023/03/21 00:43:32;;;;;;;9.20;8.08;;;;;;;5.51;97.79;99350.83;1731369;80;20985;-57
2023/03/21 00:45:59;;;;;;;11.73;8.15;;;;;;;5.56;97.66;99350.69;1743082;80;21057;-57
2023/03/21 00:48:26;;;;;;;9.15;7.65;;;;;;;5.58;97.59;99343.27;1740831;80;21068;-57
2023/03/21 00:50:56;;;;;;;11.22;8.28;;;;;;;5.63;97.44;99353.91;1731880;80;21096;-56
2023/03/21 00:53:22;;;;;;;12.73;8.68;;;;;;;5.64;97.70;99349.15;1740693;80;21664;-57
2023/03/21 00:55:49;;;;;;;9.45;8.08;;;;;;;5.66;97.45;99342.16;1731478;80;21104;-57
2023/03/21 00:58:16;;;;;;;8.70;7.72;;;;;;;5.65;97.28;99352.13;1729116;80;21158;-57
2023/03/21 01:00:42;;;;;;;9.13;7.20;;;;;;;5.68;97.34;99354.61;1738957;80;21070;-57
2023/03/21 01:03:12;;;;;;;10.55;8.05;;;;;;;5.67;97.22;99351.64;1723060;81;21113;-57
2023/03/21 01:08:28;;;;;;;11.55;7.40;;;;;;;5.69;97.26;99348.55;1738697;80;21567;-57
2023/03/21 01:10:55;;;;;;;8.10;7.30;;;;;;;5.68;97.23;99349.43;1744292;80;21032;-57
2023/03/21 01:13:23;;;;;;;8.88;6.95;;;;;;;5.69;97.08;99342.92;1727962;80;21085;-56
2023/03/21 01:15:53;;;;;;;8.10;7.30;;;;;;;5.69;97.15;99348.09;1743045;80;21042;-57
2023/03/21 01:18:24;;;;;;;9.90;7.90;;;;;;;5.70;97.05;99341.17;1732647;80;21065;-57
2023/03/21 01:20:52;;;;;;;10.10;6.80;;;;;;;5.73;96.97;99342.36;1731495;80;21666;-56
2023/03/21 01:23:19;;;;;;;9.35;6.97;;;;;;;5.71;97.41;99350.63;1737408;80;21651;-57
2023/03/21 01:25:48;;;;;;;11.68;8.90;;;;;;;5.71;97.28;99358.39;1736837;80;21089;-57
2023/03/21 01:28:15;;;;;;;9.68;8.05;;;;;;;5.68;97.07;99357.20;1738558;80;21005;-57
2023/03/21 01:30:49;;;;;;;12.43;8.47;;;;;;;5.68;96.98;99354.61;1741670;80;21158;-56
2023/03/21 01:33:17;;;;;;;10.90;8.48;;;;;;;5.68;96.94;99355.91;1726467;80;21402;-57
2023/03/21 01:35:43;;;;;;;;;;;;;;;5.70;96.97;99357.55;1739830;80;21347;-56
2023/03/21 01:38:10;;;;;;;12.20;8.97;;;;;;;5.73;96.89;99351.42;1736355;80;20103;-56
2023/03/21 01:40:37;;;;;;;14.00;8.90;;;;;;;5.75;96.81;99360.00;1740310;80;21390;-57
2023/03/21 01:43:05;;;;;;;9.60;8.10;;;;;;;5.66;96.81;99344.74;1739824;80;21961;-57
2023/03/21 01:46:10;;;;;;;12.33;8.75;;;;;;;5.72;97.07;99357.52;1740012;80;21069;-56
2023/03/21 01:48:40;;;;;;;9.70;8.68;;;;;;;5.71;96.92;99366.16;1719338;80;21157;-57
2023/03/21 01:51:08;;;;;;;10.98;8.73;;;;;;;5.69;97.61;99367.98;1723753;80;21058;-56
2023/03/21 01:53:37;;;;;;;11.43;9.45;;;;;;;5.63;97.07;99368.16;1742876;80;21199;-57
2023/03/21 01:56:07;;;;;;;11.83;8.90;;;;;;;5.60;96.96;99368.68;1729450;79;20990;-56
2023/03/21 01:58:36;;;;;;;12.75;9.88;;;;;;;5.58;97.13;99371.76;1718613;81;21551;-57
2023/03/21 02:01:03;;;;;;;12.50;8.55;;;;;;;5.55;96.74;99370.56;1732282;81;21018;-57
2023/03/21 02:03:48;;;;;;;11.65;8.68;;;;;;;5.54;96.60;99370.15;1726938;81;21096;-56
2023/03/21 02:06:11;;;;;;;13.85;8.45;;;;;;;5.50;96.45;99376.34;1730212;80;21026;-56
2023/03/21 02:08:37;;;;;;;10.38;8.18;;;;;;;5.45;96.26;99370.45;1728856;81;21130;-57
2023/03/21 02:11:05;;;;;;;11.15;8.43;;;;;;;5.41;96.14;99372.75;1732992;81;21114;-57
2023/03/21 02:13:34;;;;;;;9.15;7.62;;;;;;;5.35;96.02;99365.19;1710623;80;21104;-57
2023/03/21 02:16:03;;;;;;;10.60;8.80;;;;;;;5.29;96.21;99369.23;1737492;80;21085;-56
2023/03/21 02:19:07;;;;;;;10.93;7.90;;;;;;;5.26;96.34;99371.92;1742233;80;21582;-57
2023/03/21 02:21:49;;;;;;;12.00;8.83;;;;;;;5.25;96.35;99368.95;1742001;80;21117;-57
2023/03/21 02:24:37;;;;;;;12.68;8.10;;;;;;;5.25;96.39;99370.24;1718126;80;21035;-57
2023/03/21 02:27:17;;;;;;;12.88;8.65;;;;;;;5.28;96.25;99370.98;1731061;81;21627;-57
2023/03/21 02:30:07;;;;;;;10.50;8.58;;;;;;;5.30;96.18;99378.72;1732332;79;21058;-57
2023/03/21 02:33:10;;;;;;;11.12;9.55;;;;;;;5.30;96.12;99365.32;1714279;80;21066;-57
2023/03/21 02:35:58;;;;;;;12.95;9.83;;;;;;;5.33;95.99;99368.27;1735995;80;21639;-57
2023/03/21 02:39:00;;;;;;;12.25;8.55;;;;;;;5.33;95.93;99369.11;1732720;81;21731;-57
2023/03/21 02:41:53;;;;;;;12.90;9.60;;;;;;;5.31;95.78;99367.45;1738194;80;21096;-57
2023/03/21 02:44:35;;;;;;;11.70;9.35;;;;;;;5.31;95.83;99373.92;1734454;80;21096;-57
2023/03/21 02:47:07;;;;;;;12.95;9.13;;;;;;;5.32;95.86;99367.42;1728168;80;21042;-57
2023/03/21 02:49:58;;;;;;;14.68;9.90;;;;;;;5.35;95.85;99367.78;1733631;80;21620;-57
2023/03/21 02:52:28;;;;;;;14.38;9.75;;;;;;;5.30;95.75;99366.62;1736028;80;21566;-57
2023/03/21 02:54:57;;;;;;;12.35;9.53;;;;;;;5.31;95.73;99375.22;1744334;80;21152;-57
2023/03/21 02:57:24;;;;;;;12.35;9.30;;;;;;;5.27;95.75;99371.05;1725074;80;21061;-57
2023/03/21 02:59:52;;;;;;;11.97;9.55;;;;;;;5.30;95.78;99378.72;1734732;80;21069;-57
2023/03/21 03:02:22;;;;;;;13.25;9.88;;;;;;;5.30;95.76;99372.25;1729561;80;21554;-57
2023/03/21 03:04:48;;;;;;;11.28;9.35;;;;;;;5.31;95.70;99380.40;1723832;80;21579;-57
2023/03/21 03:07:30;;;;;;;15.45;10.05;;;;;;;5.30;95.84;99387.33;1738559;80;21052;-57
2023/03/21 03:10:20;;;;;;;15.45;9.73;;;;;;;5.28;95.69;99390.86;1734521;80;21063;-57
2023/03/21 03:13:09;;;;;;;14.40;9.40;;;;;;;5.30;95.78;99392.95;1731239;80;21038;-57
2023/03/21 03:15:49;;;;;;;14.35;8.70;;;;;;;5.30;95.74;99396.39;1726694;80;21250;-57
2023/03/21 03:18:22;;;;;;;11.70;8.03;;;;;;;5.31;95.68;99390.75;1731145;80;21148;-57
2023/03/21 03:21:04;;;;;;;12.10;8.75;;;;;;;5.30;95.62;99389.07;1736629;80;21054;-57
2023/03/21 03:23:46;;;;;;;10.80;8.38;;;;;;;5.26;95.42;99392.63;1734878;80;21129;-57
2023/03/21 03:26:18;;;;;;;14.25;8.00;;;;;;;5.23;95.54;99391.44;1737364;80;21068;-57
2023/03/21 03:28:48;;;;;;;12.37;8.50;;;;;;;5.20;95.65;99398.00;1730790;80;21102;-57
2023/03/21 03:31:20;;;;;;;11.78;8.28;;;;;;;5.16;95.53;99395.52;1727022;80;21034;-57
2023/03/21 03:33:51;;;;;;;11.57;8.60;;;;;;;5.16;95.46;99392.92;1730042;80;21560;-57
2023/03/21 03:36:20;;;;;;;12.07;8.63;;;;;;;5.15;95.37;99386.06;1740911;80;21140;-57
2023/03/21 03:38:48;;;;;;;11.53;8.08;;;;;;;5.12;95.32;99398.23;1735190;80;21703;-57
2023/03/21 03:41:27;;;;;;;15.58;7.97;;;;;;;5.07;95.16;99393.21;1714098;80;21536;-57
2023/03/21 03:43:57;;;;;;;11.20;7.28;;;;;;;5.02;95.01;99387.32;1714964;81;21000;-57
2023/03/21 03:46:33;;;;;;;9.15;7.12;;;;;;;4.90;94.74;99395.42;1726735;80;21675;-57
2023/03/21 03:49:03;;;;;;;17.85;8.43;;;;;;;4.80;94.89;99388.84;1746408;80;21317;-57
2023/03/21 03:51:42;;;;;;;14.98;8.85;;;;;;;4.73;94.98;99389.90;1731648;80;21181;-57
2023/03/21 03:54:14;;;;;;;14.40;8.83;;;;;;;4.65;95.14;99390.11;1719560;80;21137;-57
2023/03/21 03:56:41;;;;;;;11.60;8.18;;;;;;;4.68;95.30;99397.81;1725700;80;21606;-57
2023/03/21 03:59:08;;;;;;;15.87;8.93;;;;;;;4.70;95.50;99399.47;1732680;80;21038;-57
2023/03/21 04:01:34;;;;;;;13.90;8.63;;;;;;;4.73;95.62;99395.07;1737040;80;21437;-57
2023/03/21 04:04:00;;;;;;;13.43;7.97;;;;;;;4.77;95.63;99401.87;1723373;80;21504;-57
2023/03/21 04:06:27;;;;;;;13.20;7.95;;;;;;;4.79;95.44;99402.66;1737020;80;21192;-57
2023/03/21 04:08:57;;;;;;;13.35;7.25;;;;;;;4.79;95.43;99415.58;1737434;80;21088;-56
2023/03/21 04:11:24;;;;;;;11.20;7.53;;;;;;;4.77;95.56;99417.39;1743151;80;21084;-57
2023/03/21 04:13:50;;;;;;;11.53;7.53;;;;;;;4.77;95.44;99413.06;1731035;80;21148;-57
2023/03/21 04:16:18;;;;;;;11.78;8.00;;;;;;;4.78;95.47;99407.44;1729603;80;21017;-56
2023/03/21 04:18:45;;;;;;;15.28;8.18;;;;;;;4.79;95.48;99407.83;1738313;80;21187;-57
2023/03/21 04:21:13;;;;;;;10.23;7.85;;;;;;;4.82;95.44;99407.77;1728646;80;21070;-57
2023/03/21 04:23:40;;;;;;;11.53;7.35;;;;;;;4.82;95.42;99414.23;1726404;81;21039;-57
2023/03/21 04:26:08;;;;;;;9.50;6.58;;;;;;;4.75;95.23;99411.41;1733086;81;21066;-57
2023/03/21 04:28:35;;;;;;;9.23;5.92;;;;;;;4.75;95.36;99407.08;1733560;80;21036;-56
2023/03/21 04:31:05;;;;;;;9.55;6.22;;;;;;;4.70;95.15;99412.81;1735965;80;21022;-57
2023/03/21 04:33:31;;;;;;;9.28;5.37;;;;;;;4.68;95.26;99415.46;1735409;80;21562;-57
2023/03/21 04:35:57;;;;;;;7.87;5.42;;;;;;;4.71;95.25;99412.78;1721083;80;21148;-57
2023/03/21 04:38:29;;;;;;;10.88;7.15;;;;;;;4.77;95.10;99417.39;1723369;80;21066;-57
2023/03/21 04:40:53;;;;;;;8.38;5.85;;;;;;;4.80;95.13;99414.72;1733358;80;21049;-57
2023/03/21 04:43:19;;;;;;;9.43;6.55;;;;;;;4.86;95.18;99419.70;1729504;80;21081;-57
2023/03/21 04:45:46;;;;;;;13.78;6.87;;;;;;;4.83;94.94;99426.27;1732841;80;21023;-57
2023/03/21 04:48:13;;;;;;;11.03;6.83;;;;;;;4.80;95.07;99436.70;1725166;80;21058;-57
2023/03/21 04:50:39;;;;;;;11.75;7.10;;;;;;;4.79;95.00;99433.69;1728665;80;21512;-56
2023/03/21 04:53:06;;;;;;;8.97;7.00;;;;;;;4.80;95.02;99433.66;1733296;80;21150;-57
2023/03/21 04:55:33;;;;;;;12.13;7.20;;;;;;;4.81;95.01;99436.64;1720766;79;21124;-57
2023/03/21 04:58:00;;;;;;;9.97;6.83;;;;;;;4.79;95.06;99441.45;1724269;80;21078;-57
2023/03/21 05:00:26;;;;;;;10.10;7.05;;;;;;;4.76;94.96;99436.37;1733375;80;22230;-57
2023/03/21 05:02:52;;;;;;;10.93;6.83;;;;;;;4.73;95.11;99433.87;1739043;80;21116;-57
2023/03/21 05:05:19;;;;;;;11.03;6.70;;;;;;;4.67;94.97;99440.91;1729526;80;21084;-56
2023/03/21 05:07:45;;;;;;;8.45;5.65;;;;;;;4.60;95.08;99431.63;1726970;80;21165;-56
2023/03/21 05:10:12;;;;;;;11.73;6.12;;;;;;;4.61;95.18;99443.66;1728965;80;21500;-57
2023/03/21 05:12:38;;;;;;;10.90;6.33;;;;;;;4.59;95.18;99440.27;1741933;80;21065;-56
2023/03/21 05:15:06;;;;;;;7.60;6.12;;;;;;;4.54;95.38;99447.33;1729970;80;22077;-57
2023/03/21 05:17:33;;;;;;;8.63;6.05;;;;;;;4.48;95.46;99442.29;1733259;80;21042;-56
2023/03/21 05:19:59;;;;;;;9.03;6.08;;;;;;;4.50;95.32;99453.45;1729417;80;21169;-57
2023/03/21 05:22:27;;;;;;;9.75;6.70;;;;;;;4.54;95.28;99449.03;1707261;81;21120;-57
2023/03/21 05:24:54;;;;;;;12.15;6.00;;;;;;;4.54;95.17;99447.33;1733787;80;21056;-57
2023/03/21 05:27:34;;;;;;;9.63;6.87;;;;;;;4.55;95.17;99451.59;1730229;80;21092;-57
2023/03/21 05:30:07;;;;;;;13.03;6.83;;;;;;;4.52;95.15;99454.27;1722316;80;21697;-57
2023/03/21 05:32:33;;;;;;;11.03;7.30;;;;;;;4.53;95.13;99453.36;1712450;80;21552;-57
2023/03/21 05:35:00;;;;;;;14.07;8.80;;;;;;;4.61;95.21;99456.59;1735284;80;21148;-57
2023/03/21 05:37:27;;;;;;;13.25;8.10;;;;;;;4.62;95.42;99450.55;1735307;80;21020;-57
2023/03/21 05:39:53;;;;;;;11.97;7.83;;;;;;;4.62;95.10;99453.14;1722748;80;21073;-57
2023/03/21 05:42:20;;;;;;;12.37;8.05;;;;;;;4.63;95.23;99459.15;1730475;81;21105;-57
2023/03/21 05:44:47;;;;;;;8.50;6.43;;;;;;;4.63;95.29;99459.15;1726012;80;21096;-57
2023/03/21 05:47:17;;;;;;;12.33;6.67;;;;;;;4.63;95.10;99463.88;1732488;80;21470;-57
2023/03/21 05:49:44;;;;;;;9.08;6.92;;;;;;;4.68;95.09;99468.48;1714808;81;21044;-57
2023/03/21 05:52:11;;;;;;;10.98;7.35;;;;;;;4.75;94.99;99468.30;1733455;80;21627;-57
2023/03/21 05:54:37;;;;;;;9.00;7.20;;;;;;;4.75;95.11;99468.30;1729934;80;21089;-57
2023/03/21 05:57:05;;;;;;;9.28;6.22;;;;;;;4.82;95.11;99468.55;1734048;80;21532;-57
2023/03/21 05:59:31;;;;;;;8.45;5.80;;;;;;;4.86;94.94;99471.44;1737084;80;21081;-57
2023/03/21 06:01:57;;;;;;;9.90;6.05;;;;;;;4.91;94.84;99474.75;1728822;80;21804;-57
2023/03/21 06:04:24;;;;;;;7.92;5.72;;;;;;;4.92;94.79;99473.85;1736108;80;21136;-57
2023/03/21 06:06:52;;;;;;;15.03;5.90;;;;;;;5.03;94.97;99474.39;1728951;80;21757;-57
2023/03/21 06:09:20;;;;;;;;;;;;;;;5.20;94.93;99476.95;1743662;80;21096;-57
2023/03/21 06:11:50;;;;;;;11.38;6.97;;;;;;;5.22;94.46;99474.72;1731676;79;20095;-57
2023/03/21 06:14:17;;;;;;;9.85;6.62;;;;;;;5.25;94.52;99478.96;1734898;80;21156;-57
2023/03/21 06:16:44;;;;;;;9.53;5.95;;;;;;;5.22;94.26;99484.23;1722544;81;21642;-57
2023/03/21 06:19:11;;;;;;;8.25;5.95;;;;;;;5.24;94.51;99486.34;1732607;80;21123;-57
2023/03/21 06:21:38;;;;;;;11.63;6.80;;;;;;;5.39;94.77;99489.75;1734602;80;21560;-57
2023/03/21 06:24:05;;;;;;;13.20;7.08;;;;;;;5.48;94.22;99492.06;1725260;80;21072;-57
2023/03/21 06:26:31;;;;;;;11.33;7.33;;;;;;;5.46;94.11;99493.87;1740031;80;21037;-57
2023/03/21 06:28:57;;;;;;;10.80;7.03;;;;;;;5.51;93.87;99497.14;1730668;80;21572;-57
2023/03/21 06:31:26;;;;;;;10.48;6.80;;;;;;;5.54;93.92;99496.20;1723505;80;21092;-57
2023/03/21 06:33:54;;;;;;;10.43;7.08;;;;;;;5.58;94.01;99499.96;1720861;80;21145;-57
2023/03/21 06:36:21;;;;;;;7.90;6.22;;;;;;;5.65;94.02;99498.47;1745831;80;20985;-56
2023/03/21 06:38:49;;;;;;;11.33;7.08;;;;;;;5.66;93.68;99506.21;1734916;80;21114;-56
2023/03/21 06:41:18;;;;;;;8.43;6.50;;;;;;;5.63;93.28;99506.73;1733376;80;21535;-56
2023/03/21 06:43:44;;;;;;;12.07;7.47;;;;;;;5.53;93.32;99508.31;1739108;80;21515;-56
2023/03/21 06:46:11;;;;;;;11.00;6.70;;;;;;;5.53;93.48;99521.26;1739640;80;21116;-56
2023/03/21 06:48:43;;;;;;;11.25;6.40;;;;;;;5.59;93.82;99518.48;1739858;80;21068;-56
2023/03/21 06:51:07;;;;;;;10.00;7.03;;;;;;;5.63;93.22;99522.27;1744608;80;21127;-56
2023/03/21 06:53:33;;;;;;;;;;;;;;;5.67;93.54;99526.48;1735677;80;21083;-56
2023/03/21 06:55:59;;;;;;;9.35;6.53;;;;;;;5.68;93.14;99525.58;1743032;80;20164;-57
2023/03/21 06:58:26;;;;;;;8.20;6.47;;;;;;;5.76;93.46;99523.60;1737301;80;21214;-57
2023/03/21 07:00:53;;;;;;;10.15;6.03;;;;;;;5.81;93.53;99524.31;1728716;80;21114;-57
2023/03/21 07:03:20;;;;;;;9.73;6.37;;;;;;;5.93;93.48;99525.25;1725692;80;22207;-56
2023/03/21 07:05:46;;;;;;;9.93;7.00;;;;;;;6.02;93.58;99535.34;1734028;80;21062;-56
2023/03/21 07:08:13;;;;;;;8.10;5.50;;;;;;;6.08;93.45;99533.42;1732590;81;21084;-57
2023/03/21 07:10:41;;;;;;;11.50;5.87;;;;;;;6.13;93.18;99528.95;1728152;80;21540;-57
2023/03/21 07:13:09;;;;;;;9.40;5.53;;;;;;;6.17;93.11;99541.78;1733622;81;21033;-57
2023/03/21 07:15:37;;;;;;;9.25;6.45;;;;;;;6.19;93.00;99533.93;1740026;81;21057;-57
2023/03/21 07:18:05;;;;;;;8.85;6.62;;;;;;;6.31;93.39;99540.03;1739549;80;21017;-58
2023/03/21 07:20:31;;;;;;;8.03;5.45;;;;;;;6.47;93.55;99538.64;1712291;81;21062;-57
2023/03/21 07:22:58;;;;;;;8.75;5.25;;;;;;;6.49;92.85;99545.89;1729126;80;21074;-57
2023/03/21 07:25:24;;;;;;;9.53;6.43;;;;;;;6.58;93.30;99539.58;1735699;80;21078;-57
2023/03/21 07:27:51;;;;;;;9.93;7.65;;;;;;;6.65;92.57;99550.58;1733479;80;21895;-56
2023/03/21 07:30:18;;;;;;;10.90;8.17;;;;;;;6.55;92.08;99541.41;1730919;81;21091;-57
2023/03/21 07:32:46;;;;;;;10.75;8.08;;;;;;;6.59;92.69;99543.02;1707874;81;21281;-57
2023/03/21 07:35:15;;;;;;;14.75;7.05;;;;;;;6.74;92.77;99545.07;1741677;80;21062;-57
2023/03/21 07:37:41;;;;;;;11.78;6.80;;;;;;;6.87;92.92;99532.08;1719918;80;21023;-57
2023/03/21 07:40:12;;;;;;;8.53;5.50;;;;;;;6.93;92.05;99532.31;1732846;81;21070;-56
2023/03/21 07:42:39;;;;;;;8.33;5.28;;;;;;;6.99;92.40;99532.54;1729862;81;21265;-57
2023/03/21 07:45:08;;;;;;;9.65;6.08;;;;;;;7.09;92.83;99540.41;1722532;80;21125;-57
2023/03/21 07:47:35;;;;;;;9.08;5.67;;;;;;;7.35;93.12;99535.09;1738969;79;21170;-56
2023/03/21 07:50:03;;;;;;;7.50;5.97;;;;;;;7.47;92.50;99535.55;1734678;80;21118;-57
2023/03/21 07:52:30;;;;;;;7.72;5.53;;;;;;;7.67;93.00;99539.52;1722689;80;20982;-56
2023/03/21 07:54:56;;;;;;;7.08;5.20;;;;;;;7.92;92.70;99539.88;1727437;81;21003;-56
2023/03/21 07:57:23;;;;;;;11.03;7.03;;;;;;;8.17;93.14;99541.90;1729055;80;21521;-57
2023/03/21 07:59:49;;;;;;;11.40;6.87;;;;;;;8.30;91.62;99547.00;1734878;80;21203;-56
2023/03/21 08:02:17;;;;;;;11.28;6.95;;;;;;;8.24;91.98;99547.25;1722437;80;21014;-57
2023/03/21 08:04:44;;;;;;;8.75;5.17;;;;;;;8.35;91.04;99551.19;1733999;81;21189;-57
2023/03/21 08:07:11;;;;;;;7.37;5.25;;;;;;;8.21;91.19;99549.98;1723932;81;21026;-56
2023/03/21 08:09:37;;;;;;;9.20;5.87;;;;;;;8.14;91.32;99550.28;1732682;80;21050;-58
2023/03/21 08:12:07;;;;;;;9.30;4.83;;;;;;;8.18;90.39;99559.21;1735589;80;21097;-56
2023/03/21 08:14:35;;;;;;;8.73;5.40;;;;;;;8.07;91.04;99554.89;1740217;80;21035;-56
2023/03/21 08:17:03;;;;;;;8.33;4.72;;;;;;;8.09;91.51;99559.55;1741624;80;21532;-56
2023/03/21 08:19:29;;;;;;;6.47;4.70;;;;;;;8.07;90.79;99561.39;1727014;81;21108;-56
2023/03/21 08:21:58;;;;;;;8.80;4.40;;;;;;;8.07;91.34;99558.80;1722421;80;21015;-56
2023/03/21 08:24:24;;;;;;;5.95;3.75;;;;;;;8.16;91.12;99570.12;1725586;80;21065;-56
2023/03/21 08:26:51;;;;;;;7.47;3.80;;;;;;;8.13;90.90;99572.84;1730468;80;21109;-56
2023/03/21 08:29:18;;;;;;;7.20;4.20;;;;;;;8.28;91.18;99569.63;1737400;80;21152;-56
2023/03/21 08:31:44;;;;;;;7.10;4.27;;;;;;;8.32;91.07;99569.06;1729981;80;21063;-57
2023/03/21 08:34:12;;;;;;;5.12;3.67;;;;;;;8.42;91.55;99573.46;1734015;80;21636;-56
2023/03/21 08:36:39;;;;;;;6.53;4.12;;;;;;;8.56;90.65;99573.73;1725182;80;21093;-57
2023/03/21 08:39:05;;;;;;;6.67;3.45;;;;;;;8.54;90.47;99580.75;1731072;80;21123;-56
2023/03/21 08:41:33;;;;;;;7.20;3.60;;;;;;;8.49;90.15;99572.31;1731870;81;21086;-56
2023/03/21 08:44:00;;;;;;;4.42;3.17;;;;;;;8.42;89.04;99589.07;1735435;80;21082;-56
2023/03/21 08:46:31;;;;;;;5.03;3.45;;;;;;;8.27;88.99;99583.55;1733253;80;20967;-57
2023/03/21 08:48:58;;;;;;;7.05;3.35;;;;;;;8.22;89.31;99590.68;1752656;79;21010;-56
2023/03/21 08:51:24;;;;;;;4.80;3.52;;;;;;;8.24;90.16;99588.03;1660071;84;21628;-56
2023/03/21 08:53:51;;;;;;;7.22;3.58;;;;;;;8.38;90.16;99592.69;1642108;85;21102;-56
2023/03/21 08:56:20;;;;;;;8.40;3.70;;;;;;;8.44;89.87;99597.67;1674551;83;21023;-56
2023/03/21 08:58:46;;;;;;;5.97;3.50;;;;;;;8.58;90.50;99591.91;1673082;83;21069;-56
2023/03/21 09:01:14;;;;;;;5.20;2.92;;;;;;;8.95;91.18;99599.02;1743458;80;21185;-56
2023/03/21 09:03:41;;;;;;;3.95;2.50;;;;;;;9.75;90.63;99599.42;1730830;80;21109;-56
2023/03/21 09:06:09;;;;;;;3.47;2.80;;;;;;;10.27;90.41;99606.13;1738704;80;21129;-57
2023/03/21 09:08:37;;;;;;;3.72;2.45;;;;;;;10.28;88.01;99598.70;1724873;81;22520;-56
2023/03/21 09:11:04;;;;;;;3.85;2.30;;;;;;;10.15;86.77;99602.77;1722590;80;21059;-57
2023/03/21 09:13:32;;;;;;;3.05;2.10;;;;;;;10.11;86.54;99602.52;1727426;80;21544;-56
2023/03/21 09:16:00;;;;;;;6.40;2.45;;;;;;;10.15;87.61;99602.30;1739097;80;21064;-56
2023/03/21 09:18:48;;;;;;;2.70;2.00;;;;;;;9.92;87.04;99603.39;1727128;80;21144;-56
2023/03/21 09:21:19;;;;;;;4.55;2.70;;;;;;;9.92;87.04;99603.39;1741624;80;21596;-56
2023/03/21 09:23:45;;;;;;;5.00;3.52;;;;;;;9.86;86.68;99601.08;1711737;81;21038;-56
2023/03/21 09:26:12;;;;;;;6.25;3.70;;;;;;;9.92;87.25;99604.70;1712657;81;21106;-56
2023/03/21 09:28:39;;;;;;;7.10;4.00;;;;;;;10.45;89.06;99605.25;1736954;79;21030;-56
2023/03/21 09:31:11;;;;;;;3.90;3.30;;;;;;;11.40;90.44;99600.45;1739292;80;21183;-56
2023/03/21 09:33:41;;;;;;;5.10;2.55;;;;;;;12.18;89.82;99601.91;1729780;80;21105;-56
2023/03/21 09:36:14;;;;;;;4.80;2.62;;;;;;;13.15;88.71;99603.74;1739332;81;21072;-57
2023/03/21 09:38:39;;;;;;;3.47;2.22;;;;;;;13.91;89.66;99597.38;1735030;80;21104;-56
2023/03/21 09:41:28;;;;;;;4.17;2.30;;;;;;;14.09;86.43;99596.23;1738066;80;21508;-55
2023/03/21 09:44:01;;;;;;;4.03;1.70;;;;;;;13.69;85.89;99595.73;1745318;80;21565;-56
2023/03/21 09:46:50;;;;;;;5.50;2.50;;;;;;;12.68;82.37;99599.98;1662762;84;21548;-56
2023/03/21 09:49:24;;;;;;;3.02;2.02;;;;;;;11.91;83.47;99606.08;1663662;83;21082;-56
2023/03/21 09:51:54;;;;;;;4.58;1.95;;;;;;;11.54;84.87;99608.00;1632436;86;21053;-55
2023/03/21 09:54:33;;;;;;;2.27;1.82;;;;;;;11.55;80.79;99608.41;1672547;84;21010;-56
2023/03/21 09:57:03;;;;;;;3.52;1.75;;;;;;;12.55;88.32;99603.79;1674837;83;21593;-55
2023/03/21 09:59:41;;;;;;;4.05;1.60;;;;;;;13.61;82.90;99599.69;1657201;85;22526;-56
2023/03/21 10:02:45;;;;;;;2.62;2.08;;;;;;;13.28;82.27;99608.30;1652746;83;21573;-55
2023/03/21 10:05:25;;;;;;;6.60;2.72;;;;;;;12.82;83.79;99601.33;1670988;83;21010;-56
2023/03/21 10:08:04;;;;;;;4.53;2.70;;;;;;;13.38;87.42;99597.14;1668593;83;21083;-55
2023/03/21 10:10:37;;;;;;;4.00;2.17;;;;;;;13.96;84.80;99600.56;1670283;83;21050;-56
2023/03/21 10:13:06;;;;;;;5.22;2.08;;;;;;;13.94;84.59;99609.00;1662198;84;21172;-57
2023/03/21 10:15:32;;;;;;;3.40;2.10;;;;;;;14.28;85.52;99602.91;1664830;83;21458;-56
2023/03/21 10:18:01;;;;;;;6.90;2.17;;;;;;;14.49;84.46;99617.30;1664275;83;21176;-56
2023/03/21 10:20:31;;;;;;;5.80;2.47;;;;;;;15.69;86.82;99607.95;1669663;83;21197;-57
2023/03/21 10:23:00;;;;;;;5.50;2.42;;;;;;;16.09;80.94;99615.66;1679948;80;21062;-56
2023/03/21 10:25:36;;;;;;;3.20;2.25;;;;;;;16.10;82.45;99609.42;1725318;80;21096;-56
2023/03/21 10:28:05;;;;;;;3.58;2.08;;;;;;;16.58;84.24;99608.14;1736368;80;21093;-56
2023/03/21 10:30:35;;;;;;;4.78;2.25;;;;;;;18.49;83.31;99606.09;1735420;80;21098;-57
2023/03/21 10:33:08;;;;;;;2.87;2.08;;;;;;;18.15;80.61;99604.02;1728638;80;21602;-57
2023/03/21 10:35:35;;;;;;;6.15;2.98;;;;;;;18.26;78.46;99607.49;1735771;80;21073;-56
2023/03/21 10:38:04;;;;;;;3.65;2.20;;;;;;;17.72;66.50;99607.41;1731441;81;21053;-57
2023/03/21 10:40:30;;;;;;;3.37;1.77;;;;;;;16.59;77.69;99604.54;1736467;80;20966;-57
2023/03/21 10:43:19;;;;;;;3.37;2.12;;;;;;;15.93;77.99;99604.53;1737223;80;21520;-56
2023/03/21 10:45:46;;;;;;;4.05;2.05;;;;;;;16.16;81.16;99606.38;1733202;80;21569;-56
2023/03/21 10:48:13;;;;;;;3.05;2.02;;;;;;;17.17;81.33;99608.10;1739345;81;21577;-56
2023/03/21 10:50:41;;;;;;;4.22;2.52;;;;;;;19.54;82.60;99604.79;1734214;80;21098;-56
2023/03/21 10:53:11;;;;;;;4.50;2.25;;;;;;;20.74;81.58;99598.53;1736701;80;21121;-57
2023/03/21 10:55:40;;;;;;;5.40;2.30;;;;;;;20.91;78.55;99606.76;1733508;81;21101;-56
2023/03/21 10:58:09;;;;;;;4.78;2.60;;;;;;;20.75;78.96;99600.22;1729922;80;21085;-56
2023/03/21 11:00:42;;;;;;;3.05;2.17;;;;;;;20.33;75.56;99599.59;1737117;80;21116;-55
2023/03/21 11:03:30;;;;;;;3.15;1.92;;;;;;;19.27;73.74;99610.17;1731199;80;21150;-56
2023/03/21 11:06:09;;;;;;;4.20;1.80;;;;;;;18.58;76.31;99615.91;1743115;80;21116;-56
2023/03/21 11:08:43;;;;;;;1.82;1.42;;;;;;;18.10;76.79;99614.97;1739184;80;21112;-55
2023/03/21 11:11:11;;;;;;;2.98;1.50;;;;;;;17.54;73.89;99609.70;1736321;80;21096;-56
2023/03/21 11:13:41;;;;;;;3.72;1.92;;;;;;;16.94;74.71;99611.17;1720972;81;21165;-56
2023/03/21 11:16:20;;;;;;;3.90;1.98;;;;;;;16.61;74.94;99608.36;1729359;81;21659;-56
2023/03/21 11:18:50;;;;;;;3.75;2.05;;;;;;;16.14;71.16;99606.95;1721057;81;21121;-56
2023/03/21 11:21:20;;;;;;;3.50;1.90;;;;;;;15.63;72.53;99613.15;1702894;81;21081;-56
2023/03/21 11:23:51;;;;;;;4.97;2.05;;;;;;;15.20;72.72;99607.36;1746769;80;21164;-55
2023/03/21 11:26:31;;;;;;;3.25;2.17;;;;;;;14.89;72.07;99612.06;1730180;80;21130;-55
2023/03/21 11:28:58;;;;;;;3.22;2.02;;;;;;;17.51;76.04;99603.34;1722491;81;21185;-56
2023/03/21 11:31:37;;;;;;;;;;;;;;;19.41;73.49;99605.02;1730796;81;21120;-56
2023/03/21 11:34:07;;;;;;;2.67;2.02;;;;;;;18.78;68.28;99609.00;1740863;80;20469;-57
2023/03/21 11:36:40;;;;;;;4.20;2.62;;;;;;;17.48;70.19;99611.02;1732520;80;21703;-56
2023/03/21 11:39:31;;;;;;;4.30;2.30;;;;;;;16.83;70.71;99610.28;1732823;80;21057;-55
2023/03/21 11:41:57;;;;;;;3.87;2.30;;;;;;;16.18;68.58;99609.71;1728480;80;21138;-56
2023/03/21 11:44:36;;;;;;;2.70;2.07;;;;;;;17.15;70.74;99611.33;1724190;80;21149;-55
2023/03/21 11:47:02;;;;;;;4.90;2.12;;;;;;;17.25;69.27;99609.30;1733209;80;21077;-56
2023/03/21 11:49:30;;;;;;;4.55;2.10;;;;;;;16.48;68.27;99600.53;1728507;80;21092;-56
2023/03/21 11:52:12;;;;;;;3.92;2.10;;;;;;;16.17;67.37;99604.09;1741625;80;21547;-56
2023/03/21 11:55:07;;;;;;;3.27;2.05;;;;;;;16.68;69.78;99602.53;1697300;82;21090;-56